createdAt,value
2019-03-26T00:01:55.470Z,4.95
2019-03-26T00:04:23.623Z,4.80
2019-03-26T00:06:51.652Z,5.15
2019-03-26T00:09:21.331Z,4.97
2019-03-26T00:11:49.353Z,4.62
2019-03-26T00:14:17.391Z,4.60
2019-03-26T00:16:45.408Z,5.22
2019-03-26T00:19:13.540Z,4.50
2019-03-26T00:21:41.671Z,4.75
2019-03-26T00:24:09.759Z,5.00
2019-03-26T00:26:37.782Z,5.47
2019-03-26T00:29:05.885Z,4.58
2019-03-26T00:31:33.970Z,4.62
2019-03-26T00:34:01.980Z,4.70
2019-03-26T00:36:30.018Z,5.00
2019-03-26T00:38:58.085Z,4.37
2019-03-26T00:41:26.125Z,4.42
2019-03-26T00:43:54.131Z,4.42
2019-03-26T00:46:22.222Z,4.67
2019-03-26T00:48:50.369Z,4.62
2019-03-26T00:51:18.414Z,4.35
2019-03-26T00:53:46.494Z,4.37
2019-03-26T00:56:14.524Z,4.55
2019-03-26T00:58:42.638Z,4.80
2019-03-26T01:01:10.677Z,3.98
2019-03-26T01:03:38.715Z,4.33
2019-03-26T01:06:06.743Z,4.60
2019-03-26T01:08:34.771Z,4.50
2019-03-26T01:11:02.974Z,4.55
2019-03-26T01:13:31.047Z,4.08
2019-03-26T01:15:59.083Z,4.58
2019-03-26T01:18:27.156Z,3.98
2019-03-26T01:20:55.204Z,3.92
2019-03-26T01:23:23.418Z,4.33
2019-03-26T01:25:51.449Z,4.17
2019-03-26T01:28:19.484Z,3.92
2019-03-26T01:30:47.661Z,4.28
2019-03-26T01:33:15.764Z,3.90
2019-03-26T01:35:43.803Z,3.70
2019-03-26T01:38:11.846Z,3.98
2019-03-26T01:40:39.861Z,4.05
2019-03-26T01:43:07.908Z,4.03
2019-03-26T01:45:35.922Z,4.15
2019-03-26T01:48:04.063Z,3.92
2019-03-26T01:50:32.083Z,4.08
2019-03-26T01:53:00.115Z,4.30
2019-03-26T01:55:28.217Z,4.03
2019-03-26T01:57:57.514Z,3.98
2019-03-26T02:00:25.548Z,3.87
2019-03-26T02:02:53.579Z,3.77
2019-03-26T02:05:21.588Z,4.03
2019-03-26T02:07:49.626Z,3.60
2019-03-26T02:10:17.647Z,3.77
2019-03-26T02:12:48.419Z,4.03
2019-03-26T02:15:19.999Z,3.83
2019-03-26T02:17:48.022Z,3.30
2019-03-26T02:20:16.136Z,3.83
2019-03-26T02:22:44.160Z,3.70
2019-03-26T02:25:12.199Z,3.55
2019-03-26T02:27:40.225Z,3.30
2019-03-26T02:30:08.309Z,3.60
2019-03-26T02:32:36.312Z,3.27
2019-03-26T02:35:17.197Z,3.75
2019-03-26T02:37:34.152Z,3.47
2019-03-26T02:40:02.230Z,3.27
2019-03-26T02:42:30.243Z,3.67
2019-03-26T02:44:58.286Z,3.75
2019-03-26T02:47:26.306Z,3.50
2019-03-26T02:49:54.332Z,3.27
2019-03-26T02:52:22.348Z,3.10
2019-03-26T02:54:50.430Z,3.02
2019-03-26T02:57:18.452Z,2.95
2019-03-26T02:59:46.544Z,3.15
2019-03-26T03:02:14.587Z,3.27
2019-03-26T03:04:42.625Z,3.40
2019-03-26T03:07:10.633Z,3.33
2019-03-26T03:09:38.658Z,3.12
2019-03-26T03:12:06.677Z,3.00
2019-03-26T03:14:34.713Z,3.27
2019-03-26T03:17:02.766Z,3.22
2019-03-26T03:19:30.915Z,3.17
2019-03-26T03:21:58.953Z,3.20
2019-03-26T03:24:26.966Z,3.05
2019-03-26T03:26:55.001Z,3.30
2019-03-26T03:29:23.013Z,3.40
2019-03-26T03:31:51.077Z,3.20
2019-03-26T03:34:19.131Z,3.22
2019-03-26T03:36:47.192Z,3.12
2019-03-26T03:39:15.195Z,2.95
2019-03-26T03:41:43.239Z,3.27
2019-03-26T03:44:11.247Z,2.90
2019-03-26T03:46:39.706Z,2.90
2019-03-26T03:49:07.780Z,3.08
2019-03-26T03:51:35.816Z,2.98
2019-03-26T03:54:03.879Z,2.98
2019-03-26T03:56:31.979Z,1.82
2019-03-26T03:59:00.031Z,2.35
2019-03-26T04:01:28.116Z,2.60
2019-03-26T04:03:56.141Z,2.80
2019-03-26T04:06:24.179Z,2.92
2019-03-26T04:08:52.211Z,2.77
2019-03-26T04:11:20.275Z,2.70
2019-03-26T04:13:48.315Z,2.70
2019-03-26T04:16:16.407Z,3.00
2019-03-26T04:18:44.560Z,2.42
2019-03-26T04:21:12.561Z,3.10
2019-03-26T04:23:40.593Z,2.52
2019-03-26T04:26:08.689Z,2.52
2019-03-26T04:28:36.804Z,2.58
2019-03-26T04:31:04.832Z,3.00
2019-03-26T04:33:32.864Z,2.60
2019-03-26T04:36:00.892Z,2.90
2019-03-26T04:38:28.918Z,2.50
2019-03-26T04:40:57.110Z,2.65
2019-03-26T04:43:25.156Z,2.40
2019-03-26T04:45:53.163Z,2.70
2019-03-26T04:48:21.196Z,2.75
2019-03-26T04:50:49.215Z,2.40
2019-03-26T04:53:17.235Z,2.75
2019-03-26T04:55:45.266Z,2.67
2019-03-26T04:58:13.332Z,2.60
2019-03-26T05:00:41.381Z,2.90
2019-03-26T05:03:09.411Z,2.52
2019-03-26T05:05:37.454Z,2.55
2019-03-26T05:08:05.464Z,2.35
2019-03-26T05:10:33.581Z,2.60
2019-03-26T05:13:01.608Z,2.30
2019-03-26T05:15:30.626Z,2.77
2019-03-26T05:17:58.654Z,4.42
2019-03-26T05:20:26.684Z,4.10
2019-03-26T05:22:54.734Z,3.77
2019-03-26T05:25:22.770Z,4.08
2019-03-26T05:27:50.779Z,4.45
2019-03-26T05:30:18.819Z,4.00
2019-03-26T05:32:46.826Z,4.35
2019-03-26T05:35:14.968Z,4.30
2019-03-26T05:37:42.970Z,4.12
2019-03-26T05:40:10.999Z,3.98
2019-03-26T05:42:39.094Z,4.00
2019-03-26T05:45:08.091Z,4.33
2019-03-26T05:47:36.225Z,4.15
2019-03-26T05:50:05.884Z,4.00
2019-03-26T05:52:33.950Z,4.70
2019-03-26T05:55:01.974Z,4.00
2019-03-26T05:57:29.987Z,4.70
2019-03-26T05:59:58.046Z,4.05
2019-03-26T06:02:26.156Z,4.55
2019-03-26T06:04:54.167Z,4.60
2019-03-26T06:07:22.203Z,9.55
2019-03-26T06:09:50.231Z,9.53
2019-03-26T06:12:18.363Z,8.45
2019-03-26T06:14:46.387Z,6.65
2019-03-26T06:17:14.426Z,4.85
2019-03-26T06:19:42.444Z,4.12
2019-03-26T06:22:10.748Z,3.10
2019-03-26T06:24:38.764Z,2.70
2019-03-26T06:27:06.804Z,2.70
2019-03-26T06:29:34.813Z,2.12
2019-03-26T06:32:02.856Z,2.30
2019-03-26T06:34:30.879Z,2.37
2019-03-26T06:36:58.913Z,2.60
2019-03-26T06:39:26.918Z,3.77
2019-03-26T06:41:54.935Z,3.50
2019-03-26T06:44:23.054Z,3.25
2019-03-26T06:46:51.167Z,3.05
2019-03-26T06:49:19.235Z,3.70
2019-03-26T06:51:47.254Z,3.90
2019-03-26T06:54:15.281Z,4.03
2019-03-26T06:56:43.299Z,3.37
2019-03-26T06:59:11.327Z,3.40
2019-03-26T07:01:39.408Z,3.85
2019-03-26T07:04:07.456Z,3.62
2019-03-26T07:06:35.474Z,3.40
2019-03-26T07:09:05.247Z,3.58
2019-03-26T07:11:33.277Z,3.40
2019-03-26T07:14:01.316Z,3.67
2019-03-26T07:16:29.324Z,3.52
2019-03-26T07:18:57.435Z,3.70
2019-03-26T07:21:25.530Z,3.67
2019-03-26T07:23:53.593Z,3.80
2019-03-26T07:26:21.608Z,3.77
2019-03-26T07:28:49.635Z,3.22
2019-03-26T07:31:17.655Z,3.50
2019-03-26T07:33:45.681Z,3.92
2019-03-26T07:36:13.836Z,3.58
2019-03-26T07:38:42.029Z,3.27
2019-03-26T07:41:10.063Z,3.47
2019-03-26T07:43:38.132Z,3.45
2019-03-26T07:46:06.171Z,3.50
2019-03-26T07:48:34.193Z,3.20
2019-03-26T07:51:02.241Z,3.62
2019-03-26T07:53:30.252Z,2.95
2019-03-26T07:55:58.357Z,3.15
2019-03-26T07:58:26.440Z,3.10
2019-03-26T08:00:54.484Z,2.90
2019-03-26T08:03:22.528Z,3.50
2019-03-26T08:05:50.563Z,2.87
2019-03-26T08:08:18.580Z,3.12
2019-03-26T08:10:46.624Z,2.58
2019-03-26T08:13:14.665Z,3.00
2019-03-26T08:15:42.667Z,2.83
2019-03-26T08:18:10.700Z,3.12
2019-03-26T08:20:38.758Z,3.00
2019-03-26T08:23:06.849Z,3.10
2019-03-26T08:25:34.983Z,3.40
2019-03-26T08:28:05.106Z,2.70
2019-03-26T08:30:32.835Z,3.02
2019-03-26T08:33:00.882Z,2.75
2019-03-26T08:35:28.914Z,3.00
2019-03-26T08:37:57.112Z,2.80
2019-03-26T08:40:25.165Z,2.85
2019-03-26T08:42:53.187Z,2.92
2019-03-26T08:45:21.207Z,2.60
2019-03-26T08:47:49.274Z,2.70
2019-03-26T08:50:17.463Z,2.67
2019-03-26T08:52:45.499Z,2.58
2019-03-26T08:55:13.597Z,2.60
2019-03-26T08:57:41.693Z,2.90
2019-03-26T09:00:10.489Z,2.70
2019-03-26T09:02:38.530Z,2.50
2019-03-26T09:05:07.005Z,2.80
2019-03-26T09:07:35.188Z,2.67
2019-03-26T09:10:03.372Z,2.22
2019-03-26T09:12:31.384Z,2.47
2019-03-26T09:14:59.441Z,2.70
2019-03-26T09:17:27.448Z,2.75
2019-03-26T09:19:55.492Z,2.60
2019-03-26T09:22:23.505Z,2.50
2019-03-26T09:24:51.543Z,2.80
2019-03-26T09:27:19.728Z,2.87
2019-03-26T09:29:47.764Z,2.22
2019-03-26T09:32:15.789Z,2.40
2019-03-26T09:34:43.817Z,2.60
2019-03-26T09:37:11.835Z,2.50
2019-03-26T09:39:39.879Z,2.12
2019-03-26T09:42:08.279Z,2.25
2019-03-26T09:44:36.445Z,2.25
2019-03-26T09:47:15.457Z,2.37
2019-03-26T09:49:34.354Z,2.20
2019-03-26T09:52:02.425Z,2.20
2019-03-26T09:54:30.488Z,2.27
2019-03-26T09:56:58.507Z,2.22
2019-03-26T09:59:26.589Z,2.30
2019-03-26T10:01:54.612Z,2.12
2019-03-26T10:04:22.730Z,2.58
2019-03-26T10:06:50.812Z,2.47
2019-03-26T10:09:18.834Z,2.27
2019-03-26T10:11:46.848Z,2.20
2019-03-26T10:14:14.865Z,2.40
2019-03-26T10:16:42.897Z,2.15
2019-03-26T10:19:10.906Z,2.42
2019-03-26T10:21:39.036Z,2.50
2019-03-26T10:24:07.057Z,2.52
2019-03-26T10:26:35.152Z,2.25
2019-03-26T10:29:15.396Z,2.37
2019-03-26T10:31:32.938Z,2.27
2019-03-26T10:34:00.945Z,2.20
2019-03-26T10:36:29.040Z,1.92
2019-03-26T10:39:05.388Z,2.30
2019-03-26T10:41:26.963Z,1.98
2019-03-26T10:43:55.015Z,2.27
2019-03-26T10:46:23.057Z,2.27
2019-03-26T10:48:51.068Z,2.42
2019-03-26T10:51:19.107Z,2.08
2019-03-26T10:53:47.187Z,2.12
2019-03-26T10:56:15.308Z,2.02
2019-03-26T10:58:43.319Z,2.17
2019-03-26T11:01:11.338Z,2.20
2019-03-26T11:03:39.354Z,2.33
2019-03-26T11:06:07.534Z,1.98
2019-03-26T11:08:35.634Z,2.10
2019-03-26T11:11:03.682Z,2.20
2019-03-26T11:13:31.702Z,2.10
2019-03-26T11:15:59.740Z,2.00
2019-03-26T11:18:27.770Z,2.17
2019-03-26T11:21:02.760Z,2.08
2019-03-26T11:23:25.608Z,2.00
2019-03-26T11:25:53.618Z,2.35
2019-03-26T11:28:21.657Z,2.02
2019-03-26T11:30:49.671Z,2.10
2019-03-26T11:33:17.723Z,2.05
2019-03-26T11:35:45.778Z,1.90
2019-03-26T11:38:13.806Z,2.10
2019-03-26T11:40:41.843Z,1.92
2019-03-26T11:43:09.950Z,2.10
2019-03-26T11:45:37.976Z,2.05
2019-03-26T11:48:06.030Z,1.80
2019-03-26T11:50:34.054Z,2.20
2019-03-26T11:53:02.110Z,2.10
2019-03-26T11:55:30.131Z,2.15
2019-03-26T11:57:58.141Z,2.05
2019-03-26T12:00:30.576Z,2.02
2019-03-26T12:02:58.587Z,2.02
2019-03-26T12:05:26.693Z,1.72
2019-03-26T12:07:54.712Z,1.98
2019-03-26T12:10:22.739Z,2.10
2019-03-26T12:12:50.749Z,2.08
2019-03-26T12:15:18.850Z,1.95
2019-03-26T12:17:46.910Z,2.02
2019-03-26T12:20:14.945Z,2.17
2019-03-26T12:22:42.967Z,1.80
2019-03-26T12:25:10.999Z,1.87
2019-03-26T12:27:39.012Z,1.90
2019-03-26T12:30:07.230Z,1.82
2019-03-26T12:32:35.254Z,1.80
2019-03-26T12:35:04.537Z,2.00
2019-03-26T12:37:32.548Z,1.80
2019-03-26T12:40:01.088Z,1.82
2019-03-26T12:42:29.300Z,1.80
2019-03-26T12:44:57.319Z,1.70
2019-03-26T12:47:25.408Z,1.90
2019-03-26T12:49:53.466Z,1.70
2019-03-26T12:52:21.505Z,1.80
2019-03-26T12:54:49.530Z,1.75
2019-03-26T12:57:17.697Z,1.90
2019-03-26T12:59:45.741Z,2.08
2019-03-26T13:02:13.792Z,1.70
2019-03-26T13:04:41.834Z,1.92
2019-03-26T13:07:09.862Z,2.08
2019-03-26T13:09:37.923Z,1.75
2019-03-26T13:12:05.980Z,1.75
2019-03-26T13:14:34.054Z,1.60
2019-03-26T13:17:02.088Z,1.70
2019-03-26T13:19:30.216Z,2.10
2019-03-26T13:21:58.253Z,1.77
2019-03-26T13:24:26.293Z,1.80
2019-03-26T13:26:54.340Z,1.80
2019-03-26T13:29:22.378Z,1.65
2019-03-26T13:31:50.433Z,1.87
2019-03-26T13:34:18.472Z,1.70
2019-03-26T13:36:46.490Z,2.00
2019-03-26T13:39:14.541Z,2.00
2019-03-26T13:41:42.626Z,1.90
2019-03-26T13:44:10.677Z,2.10
2019-03-26T13:46:38.774Z,1.90
2019-03-26T13:49:06.813Z,1.95
2019-03-26T13:51:37.138Z,2.10
2019-03-26T13:54:04.615Z,2.17
2019-03-26T13:56:32.635Z,1.92
2019-03-26T13:59:00.676Z,2.10
2019-03-26T14:01:28.751Z,2.30
2019-03-26T14:03:59.741Z,2.15
2019-03-26T14:06:27.765Z,2.27
2019-03-26T14:08:55.835Z,2.42
2019-03-26T14:11:23.857Z,2.77
2019-03-26T14:13:51.902Z,2.27
2019-03-26T14:16:20.006Z,2.52
2019-03-26T14:18:48.060Z,2.00
2019-03-26T14:21:16.071Z,2.50
2019-03-26T14:23:44.096Z,2.40
2019-03-26T14:26:12.156Z,2.60
2019-03-26T14:28:40.171Z,2.47
2019-03-26T14:31:08.206Z,2.05
2019-03-26T14:33:36.494Z,2.47
2019-03-26T14:36:04.532Z,2.27
2019-03-26T14:38:32.562Z,2.22
2019-03-26T14:41:00.600Z,2.37
2019-03-26T14:43:28.674Z,2.20
2019-03-26T14:45:56.752Z,2.40
2019-03-26T14:48:24.769Z,2.20
2019-03-26T14:50:52.888Z,2.20
2019-03-26T14:53:20.980Z,2.10
2019-03-26T14:55:49.079Z,2.30
2019-03-26T14:58:17.083Z,2.40
2019-03-26T15:00:45.143Z,2.17
2019-03-26T15:03:13.231Z,2.33
2019-03-26T15:05:41.275Z,2.20
2019-03-26T15:08:09.287Z,2.25
2019-03-26T15:10:40.644Z,2.27
2019-03-26T15:13:08.660Z,2.22
2019-03-26T15:15:36.826Z,2.20
2019-03-26T15:18:04.907Z,2.08
2019-03-26T15:20:32.959Z,2.10
2019-03-26T15:23:00.959Z,2.17
2019-03-26T15:25:28.984Z,2.17
2019-03-26T15:27:57.044Z,2.10
2019-03-26T15:30:25.080Z,2.55
2019-03-26T15:32:53.118Z,2.58
2019-03-26T15:35:21.160Z,2.35
2019-03-26T15:37:49.251Z,2.27
2019-03-26T15:40:17.376Z,2.67
2019-03-26T15:42:45.423Z,2.17
2019-03-26T15:45:13.459Z,2.25
2019-03-26T15:47:41.607Z,2.22
2019-03-26T15:50:09.628Z,2.30
2019-03-26T15:52:37.765Z,2.20
2019-03-26T15:55:05.840Z,2.62
2019-03-26T15:57:33.879Z,2.30
2019-03-26T16:00:01.912Z,2.67
2019-03-26T16:02:29.954Z,2.25
2019-03-26T16:04:57.985Z,2.35
2019-03-26T16:07:26.016Z,2.20
2019-03-26T16:09:54.138Z,2.50
2019-03-26T16:12:22.211Z,2.27
2019-03-26T16:14:50.269Z,2.10
2019-03-26T16:17:18.288Z,2.35
2019-03-26T16:19:46.405Z,2.42
2019-03-26T16:22:17.552Z,2.33
2019-03-26T16:24:44.284Z,1.98
2019-03-26T16:27:12.363Z,2.35
2019-03-26T16:29:40.407Z,2.50
2019-03-26T16:32:08.444Z,2.15
2019-03-26T16:34:36.507Z,2.10
2019-03-26T16:37:04.510Z,2.15
2019-03-26T16:39:32.541Z,2.00
2019-03-26T16:42:00.653Z,2.12
2019-03-26T16:44:28.718Z,1.90
2019-03-26T16:46:56.817Z,2.20
2019-03-26T16:49:24.938Z,2.27
2019-03-26T16:51:53.061Z,2.00
2019-03-26T16:54:21.174Z,2.00
2019-03-26T16:56:49.211Z,2.10
2019-03-26T16:59:17.275Z,2.20
2019-03-26T17:01:45.292Z,2.33
2019-03-26T17:04:13.441Z,2.35
2019-03-26T17:06:41.447Z,2.20
2019-03-26T17:09:12.612Z,2.00
2019-03-26T17:11:40.711Z,2.02
2019-03-26T17:14:08.772Z,2.10
2019-03-26T17:16:36.854Z,1.70
2019-03-26T17:19:04.884Z,2.00
2019-03-26T17:21:33.019Z,1.85
2019-03-26T17:24:01.071Z,1.98
2019-03-26T17:26:29.113Z,2.10
2019-03-26T17:28:57.170Z,2.00
2019-03-26T17:31:25.210Z,2.27
2019-03-26T17:33:53.387Z,2.20
2019-03-26T17:36:21.537Z,2.15
2019-03-26T17:38:49.570Z,2.40
2019-03-26T17:41:17.657Z,2.00
2019-03-26T17:43:45.690Z,1.90
2019-03-26T17:46:13.723Z,2.45
2019-03-26T17:48:41.843Z,2.08
2019-03-26T17:51:09.898Z,2.30
2019-03-26T17:53:37.922Z,3.45
2019-03-26T17:56:05.987Z,7.62
2019-03-26T17:58:34.160Z,9.70
2019-03-26T18:01:02.192Z,8.98
2019-03-26T18:03:30.269Z,9.50
2019-03-26T18:05:58.324Z,8.75
2019-03-26T18:08:26.361Z,7.60
2019-03-26T18:10:54.482Z,6.42
2019-03-26T18:13:22.510Z,6.47
2019-03-26T18:15:50.526Z,5.83
2019-03-26T18:18:18.564Z,6.30
2019-03-26T18:20:46.582Z,5.70
2019-03-26T18:23:14.815Z,5.75
2019-03-26T18:25:42.979Z,5.62
2019-03-26T18:28:11.092Z,5.62
2019-03-26T18:30:39.120Z,6.15
2019-03-26T18:33:07.167Z,6.15
2019-03-26T18:35:35.263Z,5.60
2019-03-26T18:38:03.609Z,5.55
2019-03-26T18:40:34.651Z,5.42
2019-03-26T18:43:02.773Z,5.50
2019-03-26T18:45:30.788Z,5.28
2019-03-26T18:47:58.918Z,5.17
2019-03-26T18:50:26.991Z,6.17
2019-03-26T18:52:55.096Z,5.72
2019-03-26T18:55:25.235Z,6.83
2019-03-26T18:57:52.906Z,6.17
2019-03-26T19:00:31.687Z,6.92
2019-03-26T19:02:59.752Z,6.85
2019-03-26T19:05:27.900Z,6.85
2019-03-26T19:07:55.927Z,7.40
2019-03-26T19:10:25.614Z,7.20
2019-03-26T19:12:57.197Z,7.33
2019-03-26T19:15:23.759Z,7.60
2019-03-26T19:17:51.835Z,6.97
2019-03-26T19:20:19.955Z,7.28
2019-03-26T19:22:47.977Z,7.20
2019-03-26T19:25:16.017Z,7.35
2019-03-26T19:27:44.048Z,6.83
2019-03-26T19:30:12.182Z,7.35
2019-03-26T19:32:40.189Z,7.60
2019-03-26T19:35:08.303Z,7.33
2019-03-26T19:37:36.321Z,7.70
2019-03-26T19:40:05.659Z,7.20
2019-03-26T19:42:33.707Z,7.30
2019-03-26T19:45:01.776Z,7.37
2019-03-26T19:47:29.896Z,7.58
2019-03-26T19:49:57.976Z,7.03
2019-03-26T19:52:26.142Z,7.30
2019-03-26T19:54:54.151Z,7.30
2019-03-26T19:57:22.294Z,7.53
2019-03-26T19:59:50.322Z,6.97
2019-03-26T20:02:18.364Z,7.17
2019-03-26T20:04:46.416Z,7.28
2019-03-26T20:07:14.499Z,6.78
2019-03-26T20:09:42.719Z,7.40
2019-03-26T20:12:10.773Z,7.00
2019-03-26T20:14:38.863Z,7.22
2019-03-26T20:17:06.920Z,7.17
2019-03-26T20:19:34.966Z,7.15
2019-03-26T20:22:03.113Z,7.22
2019-03-26T20:24:32.175Z,7.22
2019-03-26T20:27:00.393Z,7.08
2019-03-26T20:29:28.426Z,7.10
2019-03-26T20:31:56.500Z,7.25
2019-03-26T20:34:24.594Z,7.28
2019-03-26T20:36:52.635Z,6.75
2019-03-26T20:39:20.671Z,7.50
2019-03-26T20:41:48.734Z,7.20
2019-03-26T20:44:16.757Z,7.75
2019-03-26T20:46:44.808Z,7.22
2019-03-26T20:49:12.888Z,7.83
2019-03-26T20:51:40.900Z,6.92
2019-03-26T20:54:08.981Z,7.28
2019-03-26T20:56:37.085Z,7.70
2019-03-26T20:59:05.137Z,7.15
2019-03-26T21:01:33.214Z,7.40
2019-03-26T21:04:01.410Z,7.37
2019-03-26T21:06:29.439Z,7.20
2019-03-26T21:08:57.515Z,7.25
2019-03-26T21:11:25.548Z,7.30
2019-03-26T21:13:53.584Z,6.80
2019-03-26T21:16:21.655Z,7.28
2019-03-26T21:18:49.782Z,7.47
2019-03-26T21:21:17.816Z,8.13
2019-03-26T21:23:45.945Z,7.28
2019-03-26T21:26:13.960Z,8.10
2019-03-26T21:28:42.147Z,7.67
2019-03-26T21:31:10.149Z,6.95
2019-03-26T21:33:38.258Z,7.67
2019-03-26T21:36:06.353Z,7.58
2019-03-26T21:38:34.430Z,7.17
2019-03-26T21:41:02.467Z,7.40
2019-03-26T21:43:33.620Z,6.97
2019-03-26T21:46:01.635Z,6.87
2019-03-26T21:48:29.704Z,7.47
2019-03-26T21:50:57.783Z,7.40
2019-03-26T21:53:25.796Z,7.25
2019-03-26T21:56:05.859Z,6.90
2019-03-26T21:58:23.640Z,6.78
2019-03-26T22:00:51.694Z,6.85
2019-03-26T22:03:19.760Z,6.85
2019-03-26T22:05:48.151Z,7.12
2019-03-26T22:08:16.304Z,6.47
2019-03-26T22:10:44.336Z,6.67
2019-03-26T22:13:12.341Z,6.90
2019-03-26T22:15:40.392Z,6.80
2019-03-26T22:18:08.406Z,7.10
2019-03-26T22:20:36.498Z,6.33
2019-03-26T22:23:04.683Z,6.58
2019-03-26T22:25:32.871Z,6.85
2019-03-26T22:28:00.875Z,6.67
2019-03-26T22:30:28.915Z,7.17
2019-03-26T22:32:57.068Z,6.72
2019-03-26T22:35:25.107Z,6.85
2019-03-26T22:37:53.179Z,6.92
2019-03-26T22:40:21.212Z,6.62
2019-03-26T22:42:49.267Z,6.80
2019-03-26T22:45:17.308Z,7.40
2019-03-26T22:47:45.344Z,6.67
2019-03-26T22:50:13.437Z,7.08
2019-03-26T22:52:41.487Z,6.42
2019-03-26T22:55:09.672Z,6.62
2019-03-26T22:57:38.063Z,6.55
2019-03-26T23:00:15.919Z,6.92
2019-03-26T23:02:43.963Z,7.15
2019-03-26T23:05:11.985Z,6.53
2019-03-26T23:07:39.999Z,6.80
2019-03-26T23:10:08.153Z,6.58
2019-03-26T23:12:36.194Z,6.60
2019-03-26T23:15:05.862Z,6.33
2019-03-26T23:17:33.904Z,6.00
2019-03-26T23:20:01.953Z,6.20
2019-03-26T23:22:30.005Z,6.50
2019-03-26T23:24:58.101Z,6.62
2019-03-26T23:27:26.146Z,6.42
2019-03-26T23:29:54.173Z,6.80
2019-03-26T23:32:22.280Z,6.65
2019-03-26T23:34:50.307Z,6.33
2019-03-26T23:37:18.426Z,6.15
2019-03-26T23:39:46.479Z,6.37
2019-03-26T23:42:14.569Z,6.60
2019-03-26T23:44:42.601Z,6.30
2019-03-26T23:47:10.608Z,6.58
2019-03-26T23:49:38.646Z,6.40
2019-03-26T23:52:06.653Z,6.60
2019-03-26T23:54:34.684Z,6.62
2019-03-26T23:57:02.695Z,6.12
2019-03-26T23:59:30.730Z,6.40
